createdAt,value
2019-02-18T00:00:59.493Z,20.43
2019-02-18T00:03:27.673Z,21.77
2019-02-18T00:05:55.860Z,19.67
2019-02-18T00:08:24.082Z,20.03
2019-02-18T00:10:52.302Z,20.53
2019-02-18T00:13:20.497Z,20.77
2019-02-18T00:15:48.689Z,20.70
2019-02-18T00:18:17.009Z,20.77
2019-02-18T00:20:45.221Z,20.03
2019-02-18T00:23:13.452Z,20.13
2019-02-18T00:25:41.677Z,19.67
2019-02-18T00:28:09.925Z,20.20
2019-02-18T00:30:38.108Z,19.80
2019-02-18T00:33:06.311Z,20.73
2019-02-18T00:35:34.530Z,20.00
2019-02-18T00:38:02.756Z,21.30
2019-02-18T00:40:30.943Z,18.65
2019-02-18T00:42:59.194Z,20.30
2019-02-18T00:45:27.400Z,21.30
2019-02-18T00:47:55.624Z,21.13
2019-02-18T00:50:23.824Z,20.47
2019-02-18T00:52:52.042Z,20.60
2019-02-18T00:55:20.289Z,21.73
2019-02-18T00:57:48.509Z,21.57
2019-02-18T01:00:17.340Z,21.80
2019-02-18T01:02:45.553Z,20.70
2019-02-18T01:05:13.755Z,22.30
2019-02-18T01:07:41.950Z,20.10
2019-02-18T01:10:12.967Z,22.30
2019-02-18T01:12:41.218Z,20.37
2019-02-18T01:15:10.940Z,21.33
2019-02-18T01:17:39.193Z,21.47
2019-02-18T01:20:08.934Z,20.50
2019-02-18T01:22:37.161Z,19.37
2019-02-18T01:25:06.445Z,20.20
2019-02-18T01:27:34.656Z,20.30
2019-02-18T01:30:03.037Z,20.07
2019-02-18T01:32:31.305Z,20.97
2019-02-18T01:34:59.488Z,20.70
2019-02-18T01:37:27.736Z,21.63
2019-02-18T01:39:55.954Z,21.87
2019-02-18T01:42:24.192Z,22.93
2019-02-18T01:44:52.372Z,22.17
2019-02-18T01:47:20.592Z,22.50
2019-02-18T01:49:48.843Z,22.80
2019-02-18T01:52:17.035Z,22.30
2019-02-18T01:54:45.280Z,21.87
2019-02-18T01:57:13.461Z,22.07
2019-02-18T01:59:41.677Z,22.10
2019-02-18T02:02:09.889Z,21.20
2019-02-18T02:04:38.104Z,21.17
2019-02-18T02:07:06.292Z,20.77
2019-02-18T02:09:34.510Z,20.60
2019-02-18T02:12:02.721Z,20.13
2019-02-18T02:14:30.941Z,20.67
2019-02-18T02:16:59.182Z,21.20
2019-02-18T02:19:27.393Z,21.10
2019-02-18T02:21:55.690Z,20.20
2019-02-18T02:24:23.908Z,19.83
2019-02-18T02:26:52.129Z,20.47
2019-02-18T02:29:20.347Z,21.43
2019-02-18T02:31:49.413Z,20.90
2019-02-18T02:34:17.614Z,21.63
2019-02-18T02:36:45.865Z,20.40
2019-02-18T02:39:14.093Z,20.47
2019-02-18T02:41:42.272Z,21.30
2019-02-18T02:44:10.463Z,21.70
2019-02-18T02:46:38.686Z,21.50
2019-02-18T02:49:06.870Z,20.30
2019-02-18T02:51:35.053Z,20.77
2019-02-18T02:54:03.301Z,21.10
2019-02-18T02:56:31.509Z,23.00
2019-02-18T02:58:59.746Z,21.10
2019-02-18T03:01:27.970Z,20.93
2019-02-18T03:03:56.281Z,22.27
2019-02-18T03:06:24.461Z,20.43
2019-02-18T03:08:52.716Z,22.20
2019-02-18T03:11:21.004Z,22.03
2019-02-18T03:13:49.240Z,22.83
2019-02-18T03:16:17.453Z,20.55
2019-02-18T03:18:45.643Z,22.20
2019-02-18T03:21:13.893Z,21.63
2019-02-18T03:23:42.115Z,22.27
2019-02-18T03:26:10.336Z,21.63
2019-02-18T03:28:55.271Z,22.20
2019-02-18T03:31:24.748Z,21.50
2019-02-18T03:33:54.499Z,21.23
2019-02-18T03:36:22.784Z,22.23
2019-02-18T03:38:51.048Z,21.70
2019-02-18T03:41:19.318Z,22.77
2019-02-18T03:43:47.529Z,22.93
2019-02-18T03:46:15.782Z,22.37
2019-02-18T03:48:44.074Z,21.17
2019-02-18T03:51:12.289Z,21.20
2019-02-18T03:53:40.504Z,21.67
2019-02-18T03:56:08.724Z,21.77
2019-02-18T03:58:36.951Z,21.40
2019-02-18T04:01:05.242Z,22.33
2019-02-18T04:03:33.557Z,22.47
2019-02-18T04:06:01.767Z,21.87
2019-02-18T04:08:29.977Z,22.00
2019-02-18T04:10:58.193Z,22.00
2019-02-18T04:13:26.449Z,22.27
2019-02-18T04:15:54.639Z,21.87
2019-02-18T04:18:22.849Z,22.63
2019-02-18T04:20:51.081Z,21.93
2019-02-18T04:23:19.297Z,24.40
2019-02-18T04:25:47.513Z,21.80
2019-02-18T04:28:15.729Z,22.73
2019-02-18T04:30:43.921Z,23.20
2019-02-18T04:33:12.142Z,22.00
2019-02-18T04:35:40.364Z,23.13
2019-02-18T04:38:08.549Z,22.70
2019-02-18T04:40:36.764Z,24.03
2019-02-18T04:43:04.983Z,23.20
2019-02-18T04:45:33.203Z,23.37
2019-02-18T04:48:01.488Z,22.97
2019-02-18T04:50:29.797Z,21.77
2019-02-18T04:52:57.991Z,22.90
2019-02-18T04:55:26.168Z,23.13
2019-02-18T04:57:54.461Z,24.77
2019-02-18T05:00:22.756Z,21.40
2019-02-18T05:02:50.983Z,22.43
2019-02-18T05:05:19.244Z,21.83
2019-02-18T05:07:47.461Z,22.43
2019-02-18T05:10:15.710Z,23.70
2019-02-18T05:12:43.993Z,22.40
2019-02-18T05:15:12.209Z,23.20
2019-02-18T05:17:40.432Z,21.33
2019-02-18T05:20:08.920Z,22.43
2019-02-18T05:22:37.105Z,22.37
2019-02-18T05:25:06.011Z,22.37
2019-02-18T05:27:34.242Z,24.23
2019-02-18T05:30:02.489Z,24.40
2019-02-18T05:32:30.710Z,25.50
2019-02-18T05:34:59.007Z,24.03
2019-02-18T05:37:27.288Z,24.63
2019-02-18T05:39:55.626Z,25.37
2019-02-18T05:42:24.025Z,24.90
2019-02-18T05:44:52.212Z,24.00
2019-02-18T05:47:20.464Z,23.73
2019-02-18T05:49:48.678Z,26.00
2019-02-18T05:52:16.894Z,25.57
2019-02-18T05:54:45.107Z,25.40
2019-02-18T05:57:13.337Z,25.47
2019-02-18T05:59:41.550Z,24.97
2019-02-18T06:02:09.849Z,23.90
2019-02-18T06:04:38.029Z,25.60
2019-02-18T06:07:06.269Z,27.70
2019-02-18T06:09:34.481Z,26.27
2019-02-18T06:12:02.676Z,26.03
2019-02-18T06:14:30.936Z,27.20
2019-02-18T06:16:59.158Z,26.20
2019-02-18T06:19:27.409Z,27.27
2019-02-18T06:21:55.640Z,26.17
2019-02-18T06:24:23.932Z,26.20
2019-02-18T06:26:52.231Z,25.60
2019-02-18T06:29:20.482Z,26.30
2019-02-18T06:31:48.669Z,25.57
2019-02-18T06:34:16.853Z,25.77
2019-02-18T06:36:45.080Z,25.83
2019-02-18T06:39:13.297Z,26.30
2019-02-18T06:41:41.550Z,26.90
2019-02-18T06:44:09.728Z,27.60
2019-02-18T06:46:39.622Z,26.10
2019-02-18T06:49:09.474Z,26.80
2019-02-18T06:51:37.714Z,25.90
2019-02-18T06:54:05.952Z,28.57
2019-02-18T06:56:38.703Z,26.97
2019-02-18T06:59:08.597Z,27.07
2019-02-18T07:01:38.538Z,26.77
2019-02-18T07:04:20.717Z,25.90
2019-02-18T07:06:53.526Z,26.90
2019-02-18T07:09:23.381Z,27.00
2019-02-18T07:11:53.228Z,26.50
2019-02-18T07:14:21.439Z,25.07
2019-02-18T07:16:49.627Z,25.70
2019-02-18T07:19:17.844Z,25.00
2019-02-18T07:21:46.065Z,25.33
2019-02-18T07:24:15.412Z,26.13
2019-02-18T07:26:43.778Z,26.13
2019-02-18T07:29:11.960Z,26.40
2019-02-18T07:31:40.211Z,25.07
2019-02-18T07:34:08.457Z,25.20
2019-02-18T07:36:36.670Z,24.70
2019-02-18T07:39:05.653Z,25.23
2019-02-18T07:41:33.901Z,25.70
2019-02-18T07:44:02.109Z,23.23
2019-02-18T07:46:30.381Z,24.30
2019-02-18T07:48:58.571Z,22.77
2019-02-18T07:51:26.786Z,23.10
2019-02-18T07:53:54.976Z,23.97
2019-02-18T07:56:23.228Z,24.43
2019-02-18T07:58:51.441Z,22.83
2019-02-18T08:01:19.620Z,23.67
2019-02-18T08:03:49.388Z,23.97
2019-02-18T08:06:17.682Z,23.67
2019-02-18T08:08:45.887Z,23.63
2019-02-18T08:11:14.113Z,22.50
2019-02-18T08:13:42.332Z,23.17
2019-02-18T08:16:10.549Z,22.60
2019-02-18T08:18:38.755Z,22.70
2019-02-18T08:21:07.043Z,21.93
2019-02-18T08:23:35.256Z,23.33
2019-02-18T08:26:03.708Z,22.90
2019-02-18T08:30:59.297Z,22.87
2019-02-18T08:33:27.492Z,22.67
2019-02-18T08:35:55.721Z,21.53
2019-02-18T08:38:23.910Z,22.30
2019-02-18T08:40:52.157Z,21.10
2019-02-18T08:43:20.336Z,21.00
2019-02-18T08:45:48.571Z,22.10
2019-02-18T08:48:16.781Z,21.37
2019-02-18T08:50:44.978Z,22.30
2019-02-18T08:53:13.188Z,21.63
2019-02-18T08:55:41.427Z,21.60
2019-02-18T08:58:09.645Z,21.03
2019-02-18T09:00:37.824Z,21.33
2019-02-18T09:03:06.042Z,20.63
2019-02-18T09:05:34.228Z,20.70
2019-02-18T09:08:02.458Z,21.10
2019-02-18T09:10:33.727Z,21.10
2019-02-18T09:13:00.589Z,20.20
2019-02-18T09:15:28.769Z,19.65
2019-02-18T09:17:57.025Z,20.63
2019-02-18T09:20:25.712Z,20.70
2019-02-18T09:23:01.504Z,21.73
2019-02-18T09:25:31.346Z,20.50
2019-02-18T09:42:45.464Z,21.40
2019-02-18T09:59:59.552Z,21.45
2019-02-18T10:09:49.902Z,19.90
2019-02-18T10:14:46.968Z,19.30
2019-02-18T10:22:11.371Z,18.80
2019-02-18T10:27:09.518Z,18.53
2019-02-18T10:29:37.768Z,18.67
2019-02-18T10:32:06.013Z,17.95
2019-02-18T10:34:34.196Z,18.60
2019-02-18T10:37:02.391Z,17.90
2019-02-18T10:39:30.586Z,17.23
2019-02-18T10:41:58.801Z,17.67
2019-02-18T10:44:27.013Z,19.00
2019-02-18T10:46:55.250Z,19.13
2019-02-18T10:49:23.539Z,18.70
2019-02-18T10:51:52.206Z,19.27
2019-02-18T10:54:20.509Z,18.27
2019-02-18T10:56:48.765Z,18.33
2019-02-18T10:59:16.964Z,18.30
2019-02-18T11:01:45.193Z,19.23
2019-02-18T11:04:13.460Z,18.10
2019-02-18T11:06:41.707Z,18.17
2019-02-18T11:09:11.077Z,18.67
2019-02-18T11:11:39.297Z,18.37
2019-02-18T11:14:07.487Z,18.50
2019-02-18T11:16:36.056Z,18.20
2019-02-18T11:19:04.272Z,18.60
2019-02-18T11:21:32.464Z,18.87
2019-02-18T11:24:00.691Z,18.77
2019-02-18T11:26:28.960Z,18.50
2019-02-18T11:28:57.149Z,18.20
2019-02-18T11:31:25.860Z,18.50
2019-02-18T11:33:54.074Z,18.67
2019-02-18T11:36:22.351Z,17.40
2019-02-18T11:38:50.572Z,16.50
2019-02-18T11:41:27.037Z,16.87
2019-02-18T11:43:48.804Z,17.63
2019-02-18T11:46:17.513Z,17.90
2019-02-18T11:48:45.802Z,16.63
2019-02-18T11:51:14.088Z,17.60
2019-02-18T11:53:42.282Z,17.00
2019-02-18T11:56:10.468Z,16.40
2019-02-18T11:58:38.695Z,16.97
2019-02-18T12:01:07.277Z,18.17
2019-02-18T12:03:35.493Z,16.57
2019-02-18T12:06:03.712Z,16.43
2019-02-18T12:13:26.728Z,16.85
2019-02-18T12:18:22.384Z,16.43
2019-02-18T12:20:50.582Z,16.55
2019-02-18T12:23:18.768Z,16.00
2019-02-18T13:05:08.162Z,16.43
2019-02-18T13:07:36.440Z,15.73
2019-02-18T13:10:05.583Z,17.07
2019-02-18T13:12:33.918Z,15.83
2019-02-18T13:15:02.541Z,15.20
2019-02-18T13:17:30.825Z,16.27
2019-02-18T13:19:59.155Z,15.83
2019-02-18T13:22:27.436Z,16.67
2019-02-18T13:24:55.689Z,15.70
2019-02-18T13:27:23.917Z,15.90
2019-02-18T13:29:52.224Z,16.43
2019-02-18T13:32:22.018Z,16.27
2019-02-18T13:34:50.277Z,16.00
2019-02-18T13:37:18.573Z,16.03
2019-02-18T13:39:46.870Z,14.93
2019-02-18T13:42:15.187Z,15.50
2019-02-18T15:52:28.877Z,14.70
2019-02-18T16:04:47.007Z,29.10
2019-02-18T16:07:15.404Z,19.30
2019-02-18T16:14:38.637Z,15.00
2019-02-18T16:17:06.824Z,16.07
2019-02-18T16:19:35.069Z,13.93
2019-02-18T16:22:03.285Z,13.90
2019-02-18T16:24:31.572Z,14.10
2019-02-18T16:27:00.070Z,13.90
2019-02-18T16:29:28.342Z,13.43
2019-02-18T16:31:56.588Z,13.83
2019-02-18T16:34:24.786Z,16.40
2019-02-18T16:36:53.113Z,15.97
2019-02-18T16:39:21.368Z,18.40
2019-02-18T16:41:49.655Z,15.10
2019-02-18T16:44:17.877Z,17.20
2019-02-18T16:46:46.194Z,15.30
2019-02-18T16:49:14.791Z,15.10
2019-02-18T16:51:43.009Z,15.00
2019-02-18T16:54:11.353Z,15.23
2019-02-18T16:56:39.604Z,14.23
2019-02-18T16:59:07.832Z,14.17
2019-02-18T17:01:36.053Z,15.80
2019-02-18T17:04:04.345Z,14.83
2019-02-18T17:06:32.642Z,15.70
2019-02-18T17:09:00.917Z,15.63
2019-02-18T17:11:29.209Z,16.90
2019-02-18T17:13:57.909Z,16.07
2019-02-18T17:16:26.166Z,16.73
2019-02-18T17:18:54.385Z,19.03
2019-02-18T17:21:22.665Z,20.40
2019-02-18T17:23:50.932Z,20.33
2019-02-18T17:26:19.152Z,19.07
2019-02-18T17:28:47.336Z,18.17
2019-02-18T17:31:15.740Z,16.60
2019-02-18T17:33:43.926Z,16.23
2019-02-18T17:36:12.221Z,18.70
2019-02-18T17:38:40.533Z,17.10
2019-02-18T17:41:08.787Z,16.97
2019-02-18T17:43:37.080Z,16.80
2019-02-18T17:46:05.385Z,16.10
2019-02-18T17:48:33.642Z,15.97
2019-02-18T17:51:01.896Z,15.87
2019-02-18T17:53:30.113Z,17.33
2019-02-18T17:55:58.433Z,16.53
2019-02-18T17:58:26.733Z,16.50
2019-02-18T18:00:56.493Z,15.90
2019-02-18T18:03:25.133Z,16.80
2019-02-18T18:05:53.322Z,16.93
2019-02-18T18:08:21.540Z,21.53
2019-02-18T18:10:49.753Z,19.60
2019-02-18T18:13:24.955Z,18.17
2019-02-18T18:15:47.974Z,18.40
2019-02-18T18:18:16.431Z,20.07
2019-02-18T18:20:44.665Z,19.20
2019-02-18T18:23:12.924Z,20.70
2019-02-18T18:25:41.173Z,21.50
2019-02-18T18:33:04.245Z,21.00
2019-02-18T18:35:32.981Z,21.27
2019-02-18T18:40:29.780Z,19.90
2019-02-18T18:42:58.053Z,21.70
2019-02-18T18:45:26.270Z,25.30
2019-02-18T18:47:54.589Z,22.30
2019-02-18T18:50:22.985Z,22.85
2019-02-18T18:52:51.276Z,18.60
2019-02-18T18:55:19.463Z,21.65
2019-02-18T18:57:47.682Z,22.30
2019-02-18T19:07:39.233Z,21.05
2019-02-18T19:12:34.876Z,17.60
2019-02-18T19:15:03.146Z,17.70
2019-02-18T19:22:26.452Z,25.15
2019-02-18T19:29:49.344Z,22.37
2019-02-18T19:32:17.542Z,22.25
2019-02-18T19:34:45.789Z,21.50
2019-02-18T19:42:09.410Z,21.25
2019-02-18T19:51:59.826Z,21.20
2019-02-18T20:14:08.669Z,19.60
2019-02-18T20:16:36.935Z,19.60
2019-02-18T20:21:32.511Z,20.70
2019-02-18T20:24:00.840Z,21.20
2019-02-18T20:38:46.392Z,22.40
2019-02-18T20:41:14.773Z,22.05
2019-02-18T20:46:10.392Z,23.60
2019-02-18T20:48:38.608Z,23.10
2019-02-18T20:51:06.878Z,24.40
2019-02-18T20:53:35.156Z,23.50
2019-02-18T20:56:03.363Z,24.35
2019-02-18T20:58:31.632Z,23.30
2019-02-18T21:01:00.107Z,24.00
2019-02-18T21:03:28.344Z,22.90
2019-02-18T21:05:56.580Z,23.60
2019-02-18T21:08:24.901Z,23.43
2019-02-18T21:10:53.183Z,23.90
2019-02-18T21:13:21.419Z,23.90
2019-02-18T21:15:49.703Z,23.00
2019-02-18T21:18:18.044Z,24.10
2019-02-18T21:20:46.328Z,22.50
2019-02-18T21:23:14.600Z,25.00
2019-02-18T21:37:59.805Z,22.10
2019-02-18T21:40:28.150Z,22.40
2019-02-18T21:45:23.963Z,21.70
2019-02-18T22:12:28.471Z,27.40
2019-02-18T22:34:35.901Z,24.10
2019-02-18T22:44:26.344Z,23.70
2019-02-18T22:46:54.656Z,24.20
2019-02-18T22:49:22.891Z,23.35
2019-02-18T22:51:51.175Z,22.90
2019-02-18T22:59:14.204Z,23.00
2019-02-18T23:01:42.614Z,22.80
2019-02-18T23:04:10.973Z,22.50
2019-02-18T23:06:39.277Z,26.00
2019-02-18T23:09:09.204Z,24.17
2019-02-18T23:11:37.452Z,23.83
2019-02-18T23:14:06.461Z,24.70
2019-02-18T23:16:34.777Z,24.53
2019-02-18T23:19:03.525Z,25.67
2019-02-18T23:21:32.672Z,24.97
2019-02-18T23:24:00.890Z,23.83
2019-02-18T23:26:29.107Z,26.00
2019-02-18T23:28:57.419Z,24.70
2019-02-18T23:31:25.677Z,24.73
2019-02-18T23:33:53.984Z,23.97
2019-02-18T23:36:22.734Z,23.43
2019-02-18T23:38:51.045Z,23.50
2019-02-18T23:41:19.391Z,23.60
2019-02-18T23:43:47.632Z,24.43
2019-02-18T23:46:15.937Z,24.20
2019-02-18T23:48:44.261Z,24.67
2019-02-18T23:51:12.568Z,24.60
2019-02-18T23:53:40.844Z,23.97
2019-02-18T23:56:09.089Z,23.13
2019-02-18T23:58:37.336Z,23.30
